createdAt,value
2022-11-16T00:01:40.035Z,24.55
2022-11-16T00:04:11.970Z,24.73
2022-11-16T00:09:23.860Z,23.35
2022-11-16T00:11:54.822Z,24.67
2022-11-16T00:14:25.730Z,23.38
2022-11-16T00:16:53.786Z,25.15
2022-11-16T00:19:22.109Z,24.17
2022-11-16T00:21:50.879Z,24.73
2022-11-16T00:24:20.548Z,24.48
2022-11-16T00:26:48.788Z,24.73
2022-11-16T00:29:22.316Z,25.02
2022-11-16T00:31:51.483Z,23.95
2022-11-16T00:34:20.266Z,24.73
2022-11-16T00:36:48.856Z,24.75
2022-11-16T00:39:18.990Z,25.30
2022-11-16T00:41:48.264Z,24.13
2022-11-16T00:44:16.558Z,23.80
2022-11-16T00:46:44.887Z,25.92
2022-11-16T00:49:13.444Z,26.12
2022-11-16T00:51:41.806Z,25.00
2022-11-16T00:54:09.901Z,25.12
2022-11-16T00:56:38.438Z,23.83
2022-11-16T00:59:07.539Z,25.10
2022-11-16T01:01:35.428Z,25.88
2022-11-16T01:04:04.446Z,24.95
2022-11-16T01:06:32.493Z,26.50
2022-11-16T01:09:01.457Z,25.50
2022-11-16T01:11:48.045Z,24.60
2022-11-16T01:14:16.111Z,25.65
2022-11-16T01:16:49.532Z,24.20
2022-11-16T01:19:17.224Z,25.95
2022-11-16T01:21:49.411Z,25.95
2022-11-16T01:24:17.420Z,24.83
2022-11-16T01:26:45.529Z,25.17
2022-11-16T01:29:13.531Z,26.15
2022-11-16T01:31:42.530Z,24.87
2022-11-16T01:34:10.935Z,25.20
2022-11-16T01:36:38.716Z,24.87
2022-11-16T01:39:06.461Z,23.90
2022-11-16T01:41:35.140Z,25.35
2022-11-16T01:44:06.994Z,24.45
2022-11-16T01:46:35.831Z,25.48
2022-11-16T01:49:10.708Z,25.42
2022-11-16T01:51:41.479Z,24.98
2022-11-16T01:54:12.666Z,25.73
2022-11-16T01:56:47.289Z,25.80
2022-11-16T02:02:05.103Z,25.12
2022-11-16T02:04:33.820Z,25.73
2022-11-16T02:07:20.710Z,26.62
2022-11-16T02:10:13.434Z,26.37
2022-11-16T02:13:26.207Z,26.35
2022-11-16T02:16:06.273Z,25.52
2022-11-16T02:18:43.178Z,25.33
2022-11-16T02:21:31.058Z,25.67
2022-11-16T02:24:24.730Z,25.80
2022-11-16T02:27:34.404Z,26.98
2022-11-16T02:30:05.197Z,25.83
2022-11-16T02:33:04.833Z,26.40
2022-11-16T02:35:40.461Z,25.52
2022-11-16T02:38:14.147Z,25.42
2022-11-16T02:40:48.597Z,26.52
2022-11-16T02:43:30.963Z,25.60
2022-11-16T02:46:03.558Z,24.67
2022-11-16T02:48:37.017Z,26.37
2022-11-16T02:51:07.138Z,27.05
2022-11-16T02:54:04.006Z,26.30
2022-11-16T02:56:47.213Z,25.75
2022-11-16T02:59:17.789Z,26.45
2022-11-16T03:02:25.571Z,27.23
2022-11-16T03:05:04.924Z,27.15
2022-11-16T03:07:39.879Z,25.95
2022-11-16T03:10:08.856Z,26.87
2022-11-16T03:12:40.938Z,25.05
2022-11-16T03:15:11.868Z,27.52
2022-11-16T03:17:46.144Z,26.60
2022-11-16T03:20:26.121Z,28.40
2022-11-16T03:23:01.266Z,28.08
2022-11-16T03:25:37.171Z,26.65
2022-11-16T03:28:15.756Z,28.42
2022-11-16T03:30:51.065Z,27.27
2022-11-16T03:33:22.336Z,28.77
2022-11-16T03:36:06.668Z,28.17
2022-11-16T03:38:37.980Z,29.77
2022-11-16T03:41:09.747Z,29.77
2022-11-16T03:43:40.975Z,31.08
2022-11-16T03:46:09.077Z,31.83
2022-11-16T03:48:39.530Z,32.20
2022-11-16T03:51:10.715Z,30.90
2022-11-16T03:53:39.249Z,31.85
2022-11-16T03:56:11.005Z,32.55
2022-11-16T03:58:39.796Z,34.30
2022-11-16T04:01:27.605Z,33.40
2022-11-16T04:03:56.293Z,33.88
2022-11-16T04:06:43.219Z,34.33
2022-11-16T04:09:30.031Z,33.45
2022-11-16T04:12:30.297Z,32.22
2022-11-16T04:15:16.990Z,34.25
2022-11-16T04:18:03.286Z,35.58
2022-11-16T04:20:49.700Z,35.28
2022-11-16T04:23:38.162Z,35.40
2022-11-16T04:26:08.149Z,34.97
2022-11-16T04:28:37.449Z,35.88
2022-11-16T04:31:45.149Z,35.47
2022-11-16T04:34:51.962Z,35.70
2022-11-16T04:37:48.798Z,36.58
2022-11-16T04:40:36.845Z,36.67
2022-11-16T04:43:24.439Z,36.05
2022-11-16T04:46:14.653Z,35.40
2022-11-16T04:48:43.660Z,33.83
2022-11-16T04:51:12.509Z,36.20
2022-11-16T04:54:16.394Z,36.78
2022-11-16T04:56:48.151Z,34.92
2022-11-16T04:59:35.878Z,35.20
2022-11-16T05:02:10.288Z,35.95
2022-11-16T05:04:41.619Z,39.05
2022-11-16T05:07:12.817Z,34.90
2022-11-16T05:10:10.420Z,38.20
2022-11-16T05:12:38.897Z,38.17
2022-11-16T05:15:07.535Z,37.90
2022-11-16T05:17:35.790Z,37.95
2022-11-16T05:20:23.483Z,39.42
2022-11-16T05:22:56.510Z,37.25
2022-11-16T05:25:25.111Z,36.95
2022-11-16T05:27:53.914Z,37.47
2022-11-16T05:30:21.771Z,35.47
2022-11-16T05:32:49.818Z,34.50
2022-11-16T05:35:18.752Z,32.50
2022-11-16T05:37:47.304Z,31.23
2022-11-16T05:40:16.065Z,29.63
2022-11-16T05:42:44.376Z,30.77
2022-11-16T05:45:14.913Z,30.15
2022-11-16T05:47:46.524Z,31.40
2022-11-16T05:50:36.339Z,31.35
2022-11-16T05:53:09.675Z,30.75
2022-11-16T05:55:57.286Z,30.62
2022-11-16T05:58:25.756Z,31.62
2022-11-16T06:00:53.967Z,32.30
2022-11-16T06:03:22.757Z,31.70
2022-11-16T06:05:53.275Z,33.47
2022-11-16T06:08:21.607Z,33.10
2022-11-16T06:10:51.102Z,33.70
2022-11-16T06:13:19.125Z,32.13
2022-11-16T06:15:52.570Z,34.00
2022-11-16T06:18:21.955Z,31.83
2022-11-16T06:20:50.280Z,32.10
2022-11-16T06:24:02.738Z,33.50
2022-11-16T06:27:18.520Z,34.28
2022-11-16T06:30:13.271Z,34.70
2022-11-16T06:32:40.946Z,34.58
2022-11-16T06:35:30.026Z,49.72
2022-11-16T06:38:18.680Z,37.38
2022-11-16T06:40:52.817Z,33.80
2022-11-16T06:43:21.275Z,33.05
2022-11-16T06:45:55.394Z,34.38
2022-11-16T06:48:23.938Z,33.33
2022-11-16T06:50:52.869Z,34.15
2022-11-16T06:53:44.689Z,60.03
2022-11-16T06:56:15.998Z,47.10
2022-11-16T06:59:04.784Z,37.67
2022-11-16T07:01:33.141Z,35.38
2022-11-16T07:04:11.910Z,41.40
2022-11-16T07:06:43.589Z,41.15
2022-11-16T07:09:15.476Z,52.70
2022-11-16T07:11:44.568Z,37.17
2022-11-16T07:14:14.025Z,36.30
2022-11-16T07:16:42.374Z,39.55
2022-11-16T07:19:11.235Z,37.72
2022-11-16T07:21:39.938Z,37.28
2022-11-16T07:24:08.145Z,34.38
2022-11-16T07:26:36.181Z,33.22
2022-11-16T07:29:04.312Z,33.35
2022-11-16T07:31:33.365Z,33.65
2022-11-16T07:34:11.619Z,33.30
2022-11-16T07:36:39.975Z,32.80
2022-11-16T07:39:10.290Z,32.33
2022-11-16T07:41:38.874Z,33.42
2022-11-16T07:44:11.912Z,34.75
2022-11-16T07:46:48.670Z,34.35
2022-11-16T07:49:18.949Z,61.65
2022-11-16T07:51:48.535Z,34.63
2022-11-16T07:54:16.942Z,48.78
2022-11-16T07:56:45.355Z,39.10
2022-11-16T07:59:13.704Z,33.80
2022-11-16T08:01:41.925Z,32.60
2022-11-16T08:04:11.081Z,33.35
2022-11-16T08:06:39.845Z,32.17
2022-11-16T08:09:27.880Z,33.92
2022-11-16T08:11:56.032Z,33.70
2022-11-16T08:14:44.143Z,34.45
2022-11-16T08:17:13.063Z,61.03
2022-11-16T08:20:00.674Z,50.38
2022-11-16T08:22:30.255Z,47.22
2022-11-16T08:24:58.502Z,34.85
2022-11-16T08:27:26.566Z,30.67
2022-11-16T08:29:56.173Z,30.80
2022-11-16T08:32:23.934Z,29.95
2022-11-16T08:34:53.410Z,29.87
2022-11-16T08:37:22.888Z,38.13
2022-11-16T08:39:50.850Z,46.37
2022-11-16T08:42:21.490Z,31.23
2022-11-16T08:44:49.953Z,29.60
2022-11-16T08:47:18.503Z,29.42
2022-11-16T08:49:49.730Z,31.10
2022-11-16T08:52:18.519Z,31.48
2022-11-16T08:54:47.395Z,30.40
2022-11-16T08:57:16.473Z,36.55
2022-11-16T08:59:44.923Z,37.70
2022-11-16T09:02:12.917Z,33.88
2022-11-16T09:04:40.627Z,30.52
2022-11-16T09:07:09.861Z,31.02
2022-11-16T09:09:37.716Z,28.98
2022-11-16T09:12:05.597Z,29.33
2022-11-16T09:14:33.512Z,29.67
2022-11-16T09:17:01.218Z,28.58
2022-11-16T09:19:28.922Z,29.80
2022-11-16T09:21:56.971Z,28.50
2022-11-16T09:24:24.555Z,28.83
2022-11-16T09:26:52.226Z,27.85
2022-11-16T09:29:20.934Z,28.60
2022-11-16T09:31:48.917Z,27.10
2022-11-16T09:34:17.177Z,28.65
2022-11-16T09:36:45.294Z,32.35
2022-11-16T09:39:30.070Z,28.40
2022-11-16T09:42:23.756Z,27.48
2022-11-16T09:45:04.802Z,28.23
2022-11-16T09:47:44.730Z,37.17
2022-11-16T09:50:27.851Z,32.47
2022-11-16T09:53:04.602Z,33.30
2022-11-16T09:55:52.074Z,26.85
2022-11-16T09:58:31.979Z,26.25
2022-11-16T10:01:06.582Z,26.65
2022-11-16T10:03:40.919Z,26.37
2022-11-16T10:06:19.953Z,27.90
2022-11-16T10:08:51.672Z,28.00
2022-11-16T10:11:37.871Z,27.70
2022-11-16T10:14:18.226Z,38.65
2022-11-16T10:16:51.838Z,28.80
2022-11-16T10:19:35.205Z,24.58
2022-11-16T10:22:40.809Z,25.73
2022-11-16T10:25:26.525Z,25.62
2022-11-16T10:28:15.971Z,25.85
2022-11-16T10:31:00.335Z,24.40
2022-11-16T10:34:16.046Z,24.63
2022-11-16T10:36:47.645Z,24.52
2022-11-16T10:39:19.761Z,25.25
2022-11-16T10:41:51.071Z,29.48
2022-11-16T10:44:21.680Z,27.95
2022-11-16T10:47:37.066Z,25.67
2022-11-16T10:50:33.450Z,24.48
2022-11-16T10:53:39.514Z,26.70
2022-11-16T10:56:28.417Z,26.02
2022-11-16T10:59:09.171Z,26.05
2022-11-16T11:01:41.308Z,28.98
2022-11-16T11:04:24.824Z,28.17
2022-11-16T11:06:55.435Z,26.25
2022-11-16T11:09:36.214Z,26.00
2022-11-16T11:12:37.806Z,25.08
2022-11-16T11:15:11.889Z,25.50
2022-11-16T11:17:42.263Z,24.20
2022-11-16T11:20:17.090Z,25.02
2022-11-16T11:23:02.647Z,25.30
2022-11-16T11:25:36.856Z,26.92
2022-11-16T11:28:20.240Z,26.90
2022-11-16T11:31:56.270Z,28.52
2022-11-16T11:34:50.329Z,28.10
2022-11-16T11:37:39.653Z,27.42
2022-11-16T11:40:28.925Z,30.37
2022-11-16T11:43:25.382Z,28.27
2022-11-16T11:46:30.610Z,27.48
2022-11-16T11:49:36.154Z,27.27
2022-11-16T11:53:13.322Z,27.23
2022-11-16T11:56:01.760Z,27.55
2022-11-16T11:58:33.641Z,26.02
2022-11-16T12:01:01.865Z,26.95
2022-11-16T12:03:57.964Z,28.10
2022-11-16T12:06:38.754Z,26.27
2022-11-16T12:09:18.066Z,25.73
2022-11-16T12:12:26.188Z,26.12
2022-11-16T12:15:29.187Z,27.67
2022-11-16T12:18:20.782Z,27.62
2022-11-16T12:21:22.576Z,25.55
2022-11-16T12:23:56.718Z,27.17
2022-11-16T12:26:52.741Z,26.12
2022-11-16T12:29:40.180Z,26.05
2022-11-16T12:32:33.397Z,26.58
2022-11-16T12:35:38.923Z,25.90
2022-11-16T12:38:29.793Z,26.12
2022-11-16T12:41:57.255Z,26.87
2022-11-16T12:44:55.896Z,27.30
2022-11-16T12:47:47.122Z,27.20
2022-11-16T12:50:33.836Z,27.73
2022-11-16T12:53:27.651Z,27.65
2022-11-16T12:56:24.301Z,28.45
2022-11-16T12:59:16.540Z,26.52
2022-11-16T13:02:00.807Z,26.08
2022-11-16T13:04:35.434Z,27.27
2022-11-16T13:07:13.036Z,27.20
2022-11-16T13:09:48.873Z,25.92
2022-11-16T13:12:23.481Z,26.15
2022-11-16T13:14:55.040Z,27.55
2022-11-16T13:17:28.145Z,27.17
2022-11-16T13:20:17.556Z,27.27
2022-11-16T13:23:00.413Z,30.17
2022-11-16T13:25:33.189Z,28.98
2022-11-16T13:28:20.540Z,29.60
2022-11-16T13:31:13.084Z,28.73
2022-11-16T13:33:50.983Z,27.20
2022-11-16T13:36:39.309Z,29.10
2022-11-16T13:39:08.594Z,27.40
2022-11-16T13:41:38.646Z,27.30
2022-11-16T13:44:14.497Z,26.62
2022-11-16T13:46:55.689Z,26.42
2022-11-16T13:49:29.950Z,26.80
2022-11-16T13:52:17.204Z,26.45
2022-11-16T13:54:53.236Z,26.67
2022-11-16T13:57:26.471Z,26.23
2022-11-16T14:00:21.197Z,26.95
2022-11-16T14:02:49.225Z,28.58
2022-11-16T14:05:41.627Z,28.27
2022-11-16T14:08:24.966Z,26.10
2022-11-16T14:10:52.586Z,25.10
2022-11-16T14:13:53.477Z,25.73
2022-11-16T14:16:21.736Z,26.37
2022-11-16T14:18:52.198Z,25.92
2022-11-16T14:21:19.975Z,28.23
2022-11-16T14:23:47.538Z,27.92
2022-11-16T14:26:21.804Z,27.42
2022-11-16T14:29:08.775Z,27.10
2022-11-16T14:31:55.023Z,28.60
2022-11-16T14:34:48.217Z,28.50
2022-11-16T14:37:21.822Z,28.92
2022-11-16T14:39:51.375Z,28.42
2022-11-16T14:42:38.114Z,27.45
2022-11-16T14:45:28.406Z,28.95
2022-11-16T14:48:02.960Z,30.02
2022-11-16T14:50:36.709Z,30.33
2022-11-16T14:53:13.145Z,32.45
2022-11-16T14:55:46.276Z,34.53
2022-11-16T14:58:14.171Z,36.03
2022-11-16T15:00:42.565Z,39.65
2022-11-16T15:03:12.356Z,45.35
2022-11-16T15:05:40.441Z,42.75
2022-11-16T15:08:19.537Z,41.50
2022-11-16T15:10:52.329Z,39.45
2022-11-16T15:13:45.432Z,37.05
2022-11-16T15:16:20.071Z,36.10
2022-11-16T15:19:02.368Z,35.40
2022-11-16T15:21:30.378Z,32.75
2022-11-16T15:26:46.204Z,34.20
2022-11-16T15:29:17.367Z,32.13
2022-11-16T15:31:48.401Z,34.25
2022-11-16T15:34:18.863Z,34.13
2022-11-16T15:36:48.677Z,32.33
2022-11-16T15:39:24.772Z,32.15
2022-11-16T15:41:52.898Z,32.45
2022-11-16T15:44:23.621Z,30.27
2022-11-16T15:46:55.398Z,32.13
2022-11-16T15:49:26.093Z,32.88
2022-11-16T15:51:53.856Z,32.43
2022-11-16T15:54:25.064Z,33.75
2022-11-16T15:56:56.805Z,34.75
2022-11-16T15:59:32.550Z,35.53
2022-11-16T16:02:00.753Z,36.75
2022-11-16T16:04:29.127Z,34.60
2022-11-16T16:07:12.972Z,36.97
2022-11-16T16:09:41.171Z,38.67
2022-11-16T16:12:19.852Z,36.63
2022-11-16T16:14:49.439Z,37.95
2022-11-16T16:17:29.621Z,37.15
2022-11-16T16:22:37.872Z,40.20
2022-11-16T16:25:26.155Z,41.20
2022-11-16T16:27:54.219Z,42.50
2022-11-16T16:30:22.441Z,45.55
2022-11-16T16:32:51.194Z,44.15
2022-11-16T16:35:22.665Z,45.50
2022-11-16T16:37:56.799Z,39.63
2022-11-16T16:40:25.238Z,35.67
2022-11-16T16:42:56.089Z,35.50
2022-11-16T16:45:35.196Z,35.92
2022-11-16T16:48:03.880Z,34.88
2022-11-16T16:50:31.853Z,35.90
2022-11-16T16:53:00.201Z,36.20
2022-11-16T16:58:38.043Z,29.85
2022-11-16T17:02:02.141Z,28.48
2022-11-16T17:04:39.173Z,30.12
2022-11-16T17:07:28.488Z,30.40
2022-11-16T17:10:17.435Z,28.65
2022-11-16T17:13:25.553Z,29.00
2022-11-16T17:16:13.446Z,28.58
2022-11-16T17:19:34.150Z,27.92
2022-11-16T17:22:47.375Z,27.67
2022-11-16T17:25:44.703Z,28.05
2022-11-16T17:32:30.354Z,30.65
2022-11-16T17:35:18.578Z,28.12
2022-11-16T17:37:46.713Z,29.25
2022-11-16T17:40:16.161Z,27.20
2022-11-16T17:42:48.115Z,27.33
2022-11-16T17:46:05.773Z,28.48
2022-11-16T17:49:22.512Z,27.35
2022-11-16T17:52:10.117Z,28.90
2022-11-16T17:54:58.889Z,28.23
2022-11-16T17:57:46.496Z,29.10
2022-11-16T18:00:54.617Z,25.83
2022-11-16T18:04:22.953Z,25.52
2022-11-16T18:07:01.214Z,27.62
2022-11-16T18:09:30.029Z,26.40
2022-11-16T18:12:02.211Z,28.77
2022-11-16T18:14:35.767Z,27.70
2022-11-16T18:17:23.768Z,30.98
2022-11-16T18:19:56.151Z,28.12
2022-11-16T18:22:24.479Z,27.08
2022-11-16T18:25:12.882Z,26.40
2022-11-16T18:28:01.273Z,25.50
2022-11-16T18:30:30.372Z,26.15
2022-11-16T18:32:58.714Z,27.33
2022-11-16T18:35:26.554Z,25.88
2022-11-16T18:37:55.082Z,26.73
2022-11-16T18:40:23.966Z,25.12
2022-11-16T18:42:51.990Z,22.52
2022-11-16T18:45:20.262Z,22.33
2022-11-16T18:47:48.158Z,21.05
2022-11-16T18:50:20.226Z,20.10
2022-11-16T18:53:11.425Z,19.05
2022-11-16T18:55:59.230Z,19.23
2022-11-16T18:58:49.824Z,18.90
2022-11-16T19:01:36.517Z,18.77
2022-11-16T19:04:07.682Z,19.17
2022-11-16T19:06:37.285Z,18.98
2022-11-16T19:09:09.683Z,18.33
2022-11-16T19:11:57.232Z,18.37
2022-11-16T19:14:45.125Z,17.12
2022-11-16T19:17:48.178Z,16.40
2022-11-16T19:20:24.728Z,17.52
2022-11-16T19:22:53.126Z,16.70
2022-11-16T19:25:22.561Z,16.27
2022-11-16T19:28:10.427Z,16.52
2022-11-16T19:30:58.115Z,17.15
2022-11-16T19:33:26.469Z,17.17
2022-11-16T19:36:17.017Z,17.12
2022-11-16T19:38:47.287Z,17.45
2022-11-16T19:41:17.361Z,16.60
2022-11-16T19:43:45.656Z,17.87
2022-11-16T19:46:20.537Z,16.35
2022-11-16T19:48:49.905Z,17.17
2022-11-16T19:51:29.693Z,18.15
2022-11-16T19:54:02.367Z,16.15
2022-11-16T19:56:30.629Z,14.98
2022-11-16T19:58:58.932Z,14.63
2022-11-16T20:01:29.410Z,14.77
2022-11-16T20:04:00.413Z,15.07
2022-11-16T20:06:34.170Z,14.48
2022-11-16T20:09:08.713Z,14.48
2022-11-16T20:11:41.324Z,14.93
2022-11-16T20:14:11.885Z,16.00
2022-11-16T20:16:46.586Z,14.90
2022-11-16T20:19:15.798Z,15.15
2022-11-16T20:21:44.765Z,16.23
2022-11-16T20:24:15.174Z,14.95
2022-11-16T20:26:48.669Z,15.32
2022-11-16T20:29:18.744Z,15.15
2022-11-16T20:31:47.415Z,15.18
2022-11-16T20:34:18.580Z,16.12
2022-11-16T20:36:48.155Z,14.93
2022-11-16T20:39:29.599Z,15.57
2022-11-16T20:41:59.079Z,14.38
2022-11-16T20:44:27.326Z,14.43
2022-11-16T20:46:55.630Z,14.00
2022-11-16T20:49:24.053Z,12.93
2022-11-16T20:51:52.289Z,13.32
2022-11-16T20:54:20.102Z,12.93
2022-11-16T20:56:49.741Z,11.90
2022-11-16T20:59:17.993Z,12.52
2022-11-16T21:01:48.813Z,14.48
2022-11-16T21:06:45.011Z,15.38
2022-11-16T21:09:15.628Z,13.98
2022-11-16T21:12:02.500Z,13.18
2022-11-16T21:14:30.483Z,21.87
2022-11-16T21:16:58.420Z,17.25
2022-11-16T21:19:26.420Z,13.18
2022-11-16T21:21:54.159Z,13.20
2022-11-16T21:24:24.771Z,12.05
2022-11-16T21:26:52.549Z,13.10
2022-11-16T21:29:25.909Z,12.95
2022-11-16T21:31:53.938Z,12.15
2022-11-16T21:34:21.532Z,12.65
2022-11-16T21:36:49.263Z,12.15
2022-11-16T21:39:17.669Z,13.10
2022-11-16T21:41:45.346Z,13.13
2022-11-16T21:44:12.952Z,11.27
2022-11-16T21:46:41.147Z,11.27
2022-11-16T21:49:09.475Z,13.07
2022-11-16T21:51:37.090Z,12.40
2022-11-16T21:54:05.121Z,12.45
2022-11-16T21:56:32.786Z,12.48
2022-11-16T21:59:00.568Z,12.55
2022-11-16T22:01:48.588Z,12.18
2022-11-16T22:04:35.478Z,11.98
2022-11-16T22:07:21.858Z,11.50
2022-11-16T22:09:49.871Z,11.80
2022-11-16T22:12:17.479Z,11.77
2022-11-16T22:14:45.127Z,12.37
2022-11-16T22:17:13.233Z,13.15
2022-11-16T22:19:40.914Z,12.15
2022-11-16T22:22:08.600Z,12.25
2022-11-16T22:24:36.641Z,12.02
2022-11-16T22:27:04.367Z,11.95
2022-11-16T22:29:32.165Z,12.68
2022-11-16T22:32:00.346Z,12.18
2022-11-16T22:34:28.030Z,12.40
2022-11-16T22:36:55.628Z,12.85
2022-11-16T22:39:23.655Z,12.30
2022-11-16T22:41:51.620Z,13.50
2022-11-16T22:44:19.459Z,13.98
2022-11-16T22:46:49.493Z,14.05
2022-11-16T22:49:17.523Z,14.32
2022-11-16T22:51:46.007Z,14.93
2022-11-16T22:54:15.683Z,15.15
2022-11-16T22:56:43.938Z,15.32
2022-11-16T22:59:11.527Z,13.43
2022-11-16T23:01:39.478Z,12.77
2022-11-16T23:04:07.134Z,12.95
2022-11-16T23:06:34.782Z,12.88
2022-11-16T23:09:02.941Z,12.68
2022-11-16T23:11:49.184Z,13.30
2022-11-16T23:14:36.138Z,11.93
2022-11-16T23:17:04.454Z,12.80
2022-11-16T23:19:52.859Z,11.85
2022-11-16T23:22:40.624Z,11.70
2022-11-16T23:25:30.515Z,11.80
2022-11-16T23:27:58.155Z,11.52
2022-11-16T23:30:26.711Z,12.27
2022-11-16T23:32:54.727Z,12.70
2022-11-16T23:35:23.300Z,12.20
2022-11-16T23:37:57.110Z,13.48
2022-11-16T23:40:30.376Z,13.52
2022-11-16T23:43:18.574Z,13.98
2022-11-16T23:45:46.488Z,13.35
2022-11-16T23:48:16.655Z,13.55
2022-11-16T23:50:45.932Z,16.62
2022-11-16T23:53:14.465Z,20.08
2022-11-16T23:55:42.363Z,17.37
2022-11-16T23:58:13.698Z,15.00
